Time;durP1;ratioP1;P1;durP2;ratioP2;P2;SDS_P1;SDS_P2;PMS_P1;PMS_P2;Temp;Humidity;BMP_temperature;BMP_pressure;BME280_temperature;BME280_humidity;BME280_pressure;Samples;Min_cycle;Max_cycle;Signal;HPM_P1;HPM_P2
2022/07/12 00:00:25;;;;;;;;;;;;;;;19.66;38.67;100794.16;5375492;32;34250;-95
2022/07/12 00:03:27;;;;;;;;;;;;;;;19.96;38.18;100795.56;5385791;32;34689;-93
2022/07/12 00:06:31;;;;;;;;;;;;;;;19.87;38.38;100791.75;5376273;32;35877;-94
2022/07/12 00:09:33;;;;;;;;;;;;;;;19.00;40.44;100789.84;5379822;32;35002;-94
2022/07/12 00:12:40;;;;;;;;;;;;;;;18.93;40.67;100778.75;5397337;32;44678;-94
2022/07/12 00:15:45;;;;;;;;;;;;;;;19.06;40.45;100776.06;5390034;32;35975;-94
2022/07/12 00:18:49;;;;;;;;;;;;;;;19.62;39.15;100775.81;5377952;32;35670;-95
2022/07/12 00:21:51;;;;;;;;;;;;;;;19.17;40.09;100778.00;5388999;32;35498;-94
2022/07/12 00:24:54;;;;;;;;;;;;;;;19.52;39.50;100774.72;5376045;32;35224;-94
2022/07/12 00:27:57;;;;;;;;;;;;;;;19.58;39.37;100779.63;5390189;32;35841;-95
2022/07/12 00:30:59;;;;;;;;;;;;;;;20.11;38.37;100777.62;5378806;32;35865;-94
2022/07/12 00:34:02;;;;;;;;;;;;;;;19.48;39.44;100780.25;5379845;32;34541;-95
2022/07/12 00:37:04;;;;;;;;;;;;;;;19.23;40.02;100779.41;5369328;32;35016;-95
2022/07/12 00:40:10;;;;;;;;;;;;;;;19.65;39.03;100788.94;5372201;32;45625;-94
2022/07/12 00:43:12;;;;;;;;;;;;;;;18.96;40.89;100782.16;5394973;32;38557;-94
2022/07/12 00:46:15;;;;;;;;;;;;;;;19.88;38.95;100781.94;5377844;32;35831;-94
2022/07/12 00:49:19;;;;;;;;;;;;;;;19.95;38.49;100783.22;5375082;32;38251;-94
2022/07/12 00:52:23;;;;;;;;;;;;;;;19.79;38.77;100794.13;5378817;32;35306;-95
2022/07/12 00:55:25;;;;;;;;;;;;;;;19.47;39.49;100789.22;5387619;32;35060;-95
2022/07/12 00:58:28;;;;;;;;;;;;;;;20.07;38.34;100790.31;5378537;32;34960;-95
2022/07/12 01:01:30;;;;;;;;;;;;;;;19.72;39.10;100798.19;5370419;32;35995;-94
2022/07/12 01:04:33;;;;;;;;;;;;;;;18.86;40.87;100798.72;5397057;32;37022;-95
2022/07/12 01:07:42;;;;;;;;;;;;;;;18.74;41.01;100798.69;5380845;32;43646;-93
2022/07/12 01:10:44;;;;;;;;;;;;;;;19.18;40.04;100787.72;5392649;32;36716;-93
2022/07/12 01:13:48;;;;;;;;;;;;;;;19.01;40.39;100801.34;5392363;32;33829;-95
2022/07/12 01:16:50;;;;;;;;;;;;;;;19.32;39.93;100790.28;5393703;32;35109;-94
2022/07/12 01:19:57;;;;;;;;;;;;;;;18.97;40.66;100799.84;5379465;32;35149;-93
2022/07/12 01:22:59;;;;;;;;;;;;;;;19.13;41.65;100789.84;5385688;32;35700;-93
2022/07/12 01:26:03;;;;;;;;;;;;;;;18.60;42.35;100799.59;5389690;32;35324;-94
2022/07/12 01:29:05;;;;;;;;;;;;;;;18.49;43.73;100797.66;5387954;32;33992;-94
2022/07/12 01:32:25;;;;;;;;;;;;;;;18.71;44.12;100790.94;5391193;32;44557;-94
2022/07/12 01:35:29;;;;;;;;;;;;;;;18.90;42.92;100796.72;5382120;32;38140;-94
2022/07/12 01:38:32;;;;;;;;;;;;;;;18.43;43.35;100791.88;5385446;32;34563;-94
2022/07/12 01:41:35;;;;;;;;;;;;;;;18.37;43.58;100793.13;5388955;32;36620;-93
2022/07/12 01:44:38;;;;;;;;;;;;;;;18.50;43.38;100778.06;5384330;32;34321;-95
2022/07/12 01:47:40;;;;;;;;;;;;;;;18.11;44.63;100778.84;5390385;32;35672;-94
2022/07/12 01:50:45;;;;;;;;;;;;;;;18.06;44.37;100779.13;5367981;32;34420;-95
2022/07/12 01:53:47;;;;;;;;;;;;;;;18.09;44.47;100772.75;5386983;32;36134;-95
2022/07/12 01:56:49;;;;;;;;;;;;;;;18.91;41.91;100766.47;5383091;32;34859;-95
2022/07/12 01:59:53;;;;;;;;;;;;;;;17.95;44.81;100778.09;5368122;32;34272;-94
2022/07/12 02:02:55;;;;;;;;;;;;;;;18.08;44.06;100776.37;5387685;32;35405;-95
2022/07/12 02:05:58;;;;;;;;;;;;;;;17.77;44.83;100780.97;5381051;32;34854;-94
2022/07/12 02:09:00;;;;;;;;;;;;;;;17.46;45.94;100776.69;5397601;32;34960;-94
2022/07/12 02:12:03;;;;;;;;;;;;;;;17.13;46.54;100782.25;5399694;32;35840;-93
2022/07/12 02:15:06;;;;;;;;;;;;;;;17.30;47.35;100786.53;5406419;32;36173;-94
2022/07/12 02:18:08;;;;;;;;;;;;;;;17.50;46.33;100780.84;5395564;32;45825;-94
2022/07/12 02:21:10;;;;;;;;;;;;;;;18.14;44.83;100776.81;5383378;32;35727;-95
2022/07/12 02:24:13;;;;;;;;;;;;;;;18.01;45.68;100775.06;5394225;32;35545;-95
2022/07/12 02:27:17;;;;;;;;;;;;;;;17.91;45.97;100776.59;5381893;32;35861;-95
2022/07/12 02:30:19;;;;;;;;;;;;;;;18.62;43.58;100779.91;5405002;32;35540;-95
2022/07/12 02:33:21;;;;;;;;;;;;;;;17.88;45.37;100777.62;5381616;32;35336;-95
2022/07/12 02:36:24;;;;;;;;;;;;;;;17.63;45.73;100786.25;5383788;32;36256;-94
2022/07/12 02:39:26;;;;;;;;;;;;;;;16.96;47.25;100783.25;5389878;32;36903;-95
2022/07/12 02:42:29;;;;;;;;;;;;;;;17.04;47.51;100780.13;5382013;32;36756;-94
2022/07/12 02:45:33;;;;;;;;;;;;;;;17.02;47.57;100787.34;5399113;32;34327;-95
2022/07/12 02:48:41;;;;;;;;;;;;;;;17.64;46.50;100787.13;5395254;32;46795;-96
2022/07/12 02:51:44;;;;;;;;;;;;;;;18.22;44.76;100792.28;5392223;32;34389;-95
2022/07/12 02:54:47;;;;;;;;;;;;;;;18.08;44.22;100787.84;5384084;32;35972;-95
2022/07/12 02:57:50;;;;;;;;;;;;;;;17.64;45.76;100793.28;5386027;32;35468;-95
2022/07/12 03:00:56;;;;;;;;;;;;;;;17.17;47.20;100802.34;5381558;32;34907;-93
2022/07/12 03:03:59;;;;;;;;;;;;;;;17.26;46.95;100790.31;5379158;32;35259;-93
2022/07/12 03:07:02;;;;;;;;;;;;;;;17.64;45.49;100793.28;5388804;32;36002;-95
2022/07/12 03:10:05;;;;;;;;;;;;;;;17.13;46.45;100792.00;5382518;32;34022;-95
2022/07/12 03:13:11;;;;;;;;;;;;;;;17.43;45.83;100791.97;5401502;32;45345;-94
2022/07/12 03:16:15;;;;;;;;;;;;;;;17.75;45.09;100792.66;5380628;32;35073;-93
2022/07/12 03:19:18;;;;;;;;;;;;;;;17.22;46.04;100797.62;5365300;32;35334;-94
2022/07/12 03:22:20;;;;;;;;;;;;;;;17.52;45.47;100794.91;5392671;32;36069;-93
2022/07/12 03:25:23;;;;;;;;;;;;;;;17.74;44.79;100799.78;5389591;32;37537;-95
2022/07/12 03:28:27;;;;;;;;;;;;;;;18.55;42.90;100796.41;5392263;32;34841;-94
2022/07/12 03:31:30;;;;;;;;;;;;;;;17.77;44.65;100798.72;5378626;32;36125;-93
2022/07/12 03:34:32;;;;;;;;;;;;;;;17.99;44.35;100800.91;5385076;32;35687;-94
2022/07/12 03:37:40;;;;;;;;;;;;;;;17.32;45.83;100806.75;5391810;32;33797;-94
2022/07/12 03:40:43;;;;;;;;;;;;;;;18.44;43.38;100801.56;5396678;32;44481;-94
2022/07/12 03:43:48;;;;;;;;;;;;;;;18.08;44.12;100805.63;5393360;32;36363;-95
2022/07/12 03:46:50;;;;;;;;;;;;;;;18.55;42.95;100799.06;5390153;32;36742;-94
2022/07/12 03:49:53;;;;;;;;;;;;;;;18.45;43.20;100800.59;5389140;32;34465;-95
2022/07/12 03:52:55;;;;;;;;;;;;;;;18.76;42.80;100802.97;5377563;32;36172;-94
2022/07/12 03:55:57;;;;;;;;;;;;;;;18.79;42.72;100807.25;5383084;32;34526;-94
2022/07/12 03:59:00;;;;;;;;;;;;;;;18.68;42.67;100794.66;5368684;32;36182;-94
2022/07/12 04:02:02;;;;;;;;;;;;;;;19.27;41.97;100802.22;5372619;32;36314;-95
2022/07/12 04:05:06;;;;;;;;;;;;;;;19.28;41.34;100809.25;5400388;32;35888;-94
2022/07/12 04:08:08;;;;;;;;;;;;;;;19.29;41.65;100800.31;5381043;32;35975;-93
2022/07/12 04:11:10;;;;;;;;;;;;;;;19.14;41.80;100812.87;5393767;32;37993;-94
2022/07/12 04:14:12;;;;;;;;;;;;;;;19.33;41.49;100817.81;5385792;32;35463;-94
2022/07/12 04:17:14;;;;;;;;;;;;;;;19.49;41.21;100813.09;5383400;32;34600;-95
2022/07/12 04:20:17;;;;;;;;;;;;;;;19.15;42.01;100803.91;5392807;32;34782;-95
2022/07/12 04:23:20;;;;;;;;;;;;;;;19.54;41.21;100810.13;5382880;32;35894;-95
2022/07/12 04:26:22;;;;;;;;;;;;;;;19.58;41.15;100809.84;5392723;32;36648;-93
2022/07/12 04:29:24;;;;;;;;;;;;;;;20.44;39.33;100811.69;5387132;32;37233;-95
2022/07/12 04:32:27;;;;;;;;;;;;;;;19.71;41.01;100808.00;5404251;32;35076;-94
2022/07/12 04:35:29;;;;;;;;;;;;;;;20.82;38.63;100806.19;5384274;32;36261;-95
2022/07/12 04:38:31;;;;;;;;;;;;;;;21.15;37.58;100800.09;5382568;32;34759;-95
2022/07/12 04:41:33;;;;;;;;;;;;;;;21.31;37.61;100797.97;5393986;32;35566;-94
2022/07/12 04:44:37;;;;;;;;;;;;;;;21.09;38.36;100798.75;5378210;32;43875;-96
2022/07/12 04:47:39;;;;;;;;;;;;;;;22.17;36.29;100799.22;5393710;32;34731;-95
2022/07/12 04:50:42;;;;;;;;;;;;;;;22.51;35.13;100799.13;5384595;32;35752;-95
2022/07/12 04:53:44;;;;;;;;;;;;;;;23.15;33.94;100791.09;5382506;32;35298;-93
2022/07/12 04:56:46;;;;;;;;;;;;;;;22.55;35.17;100793.41;5383276;32;37475;-94
2022/07/12 04:59:48;;;;;;;;;;;;;;;22.06;36.29;100799.19;5364310;32;35478;-95
2022/07/12 05:02:53;;;;;;;;;;;;;;;22.21;35.46;100797.13;5388268;32;34946;-95
2022/07/12 05:05:56;;;;;;;;;;;;;;;22.38;34.96;100800.16;5379579;32;34861;-94
2022/07/12 05:08:59;;;;;;;;;;;;;;;22.72;34.30;100800.03;5399194;32;34852;-96
2022/07/12 05:12:02;;;;;;;;;;;;;;;21.85;35.49;100801.78;5379085;32;34712;-94
2022/07/12 05:15:04;;;;;;;;;;;;;;;21.86;35.56;100807.00;5413371;32;35694;-92
2022/07/12 05:18:06;;;;;;;;;;;;;;;22.65;34.34;100818.44;5373304;32;44246;-94
2022/07/12 05:21:08;;;;;;;;;;;;;;;22.73;34.40;100803.56;5374881;32;35261;-95
2022/07/12 05:24:11;;;;;;;;;;;;;;;23.63;32.91;100810.16;5407839;32;35006;-95
2022/07/12 05:27:14;;;;;;;;;;;;;;;23.08;33.95;100812.19;5372360;32;36596;-94
2022/07/12 05:30:16;;;;;;;;;;;;;;;22.60;34.81;100811.75;5392365;32;35157;-95
2022/07/12 05:33:19;;;;;;;;;;;;;;;22.54;34.83;100818.50;5379608;32;35501;-94
2022/07/12 05:36:21;;;;;;;;;;;;;;;22.55;35.13;100820.19;5367060;32;34431;-96
2022/07/12 05:39:24;;;;;;;;;;;;;;;23.45;33.60;100820.63;5382235;32;37320;-95
2022/07/12 05:42:26;;;;;;;;;;;;;;;24.53;31.72;100825.44;5383430;32;34683;-92
2022/07/12 05:45:28;;;;;;;;;;;;;;;23.38;33.73;100821.28;5386649;32;37287;-93
2022/07/12 05:48:30;;;;;;;;;;;;;;;24.74;31.52;100826.19;5385455;32;35598;-93
2022/07/12 05:54:55;;;;;;;;;;;;;;;23.60;33.33;100821.13;5383506;32;37224;-95
2022/07/12 05:57:58;;;;;;;;;;;;;;;25.80;29.81;100827.91;5391281;32;34792;-94
2022/07/12 06:01:00;;;;;;;;;;;;;;;25.05;30.64;100818.88;5367082;32;34862;-95
2022/07/12 06:04:04;;;;;;;;;;;;;;;24.96;30.85;100837.66;5382553;32;35399;-93
2022/07/12 06:07:09;;;;;;;;;;;;;;;25.53;29.90;100825.16;5381937;32;44389;-95
2022/07/12 06:10:11;;;;;;;;;;;;;;;24.85;30.57;100819.81;5382404;32;36750;-95
2022/07/12 06:13:14;;;;;;;;;;;;;;;25.19;30.34;100828.34;5392962;32;35318;-94
2022/07/12 06:16:16;;;;;;;;;;;;;;;24.22;31.98;100828.22;5384586;32;36676;-95
2022/07/12 06:19:23;;;;;;;;;;;;;;;23.77;32.67;100827.75;5381841;32;35551;-96
2022/07/12 06:22:25;;;;;;;;;;;;;;;24.10;32.18;100818.56;5401330;32;34968;-94
2022/07/12 06:25:28;;;;;;;;;;;;;;;24.87;31.03;100811.62;5377441;32;35498;-93
2022/07/12 06:28:47;;;;;;;;;;;;;;;25.04;30.27;100814.47;5396786;32;36496;-94
2022/07/12 06:31:50;;;;;;;;;;;;;;;25.41;29.96;100811.00;5380221;32;34611;-94
2022/07/12 06:34:54;;;;;;;;;;;;;;;23.39;32.83;100823.00;5385155;32;35225;-94
2022/07/12 06:38:08;;;;;;;;;;;;;;;24.90;30.65;100822.09;5392292;32;36243;-95
2022/07/12 06:41:25;;;;;;;;;;;;;;;26.29;28.17;100816.91;5359714;32;36165;-94
2022/07/12 06:44:28;;;;;;;;;;;;;;;27.85;26.19;100814.53;5390679;32;35449;-94
2022/07/12 06:47:35;;;;;;;;;;;;;;;27.74;26.14;100811.09;5367376;32;35834;-96
2022/07/12 06:50:39;;;;;;;;;;;;;;;27.29;27.09;100822.09;5347069;32;44458;-94
2022/07/12 06:53:47;;;;;;;;;;;;;;;27.19;26.45;100811.41;5390286;32;35115;-95
2022/07/12 06:57:05;;;;;;;;;;;;;;;25.41;29.09;100829.84;5380669;32;36085;-96
2022/07/12 07:00:12;;;;;;;;;;;;;;;26.56;26.92;100821.44;5395353;32;44286;-96
2022/07/12 07:03:21;;;;;;;;;;;;;;;27.47;25.69;100814.81;5395753;32;33752;-94
2022/07/12 07:06:30;;;;;;;;;;;;;;;25.34;28.41;100823.34;5394186;32;35813;-95
2022/07/12 07:09:35;;;;;;;;;;;;;;;26.32;27.35;100814.75;5400269;32;39134;-96
2022/07/12 07:12:38;;;;;;;;;;;;;;;26.77;26.99;100821.97;5385549;32;43198;-94
2022/07/12 07:15:42;;;;;;;;;;;;;;;27.58;25.67;100813.72;5406992;32;35597;-95
2022/07/12 07:18:47;;;;;;;;;;;;;;;26.90;26.54;100818.91;5392373;32;33645;-94
2022/07/12 07:21:49;;;;;;;;;;;;;;;24.55;30.25;100821.66;5396077;32;34679;-95
2022/07/12 07:24:54;;;;;;;;;;;;;;;25.58;28.73;100822.88;5373137;32;35985;-94
2022/07/12 07:31:44;;;;;;;;;;;;;;;25.57;28.72;100818.50;5399954;32;35725;-96
2022/07/12 07:35:08;;;;;;;;;;;;;;;26.31;27.25;100820.28;5384589;32;33393;-95
2022/07/12 07:38:25;;;;;;;;;;;;;;;26.15;27.49;100815.56;5405126;32;44839;-96
2022/07/12 07:41:29;;;;;;;;;;;;;;;26.09;27.64;100817.03;5375326;32;35166;-96
2022/07/12 07:44:34;;;;;;;;;;;;;;;26.75;27.00;100802.41;5410201;32;35654;-96
2022/07/12 07:48:01;;;;;;;;;;;;;;;27.05;26.40;100808.38;5403964;32;35066;-96
2022/07/12 07:51:25;;;;;;;;;;;;;;;26.64;26.67;100806.19;5390468;32;35437;-96
2022/07/12 07:54:41;;;;;;;;;;;;;;;26.00;27.49;100806.28;5382106;32;35953;-95
2022/07/12 07:57:47;;;;;;;;;;;;;;;25.76;27.84;100809.50;5364025;32;33339;-96
2022/07/12 08:00:56;;;;;;;;;;;;;;;27.37;25.55;100805.12;5326814;32;34380;-96
2022/07/12 08:03:59;;;;;;;;;;;;;;;28.71;23.85;100804.34;5354131;32;36866;-96
2022/07/12 08:07:03;;;;;;;;;;;;;;;29.54;22.66;100803.34;5346896;32;35711;-95
2022/07/12 08:10:41;;;;;;;;;;;;;;;29.67;22.84;100795.50;5335843;32;36051;-96
2022/07/12 08:13:46;;;;;;;;;;;;;;;29.54;22.87;100795.22;5344430;32;35472;-96
2022/07/12 08:16:50;;;;;;;;;;;;;;;29.29;23.17;100797.09;5346240;32;36999;-96
2022/07/12 08:19:58;;;;;;;;;;;;;;;29.05;23.13;100795.28;5338160;32;34905;-95
2022/07/12 08:23:21;;;;;;;;;;;;;;;30.99;21.17;100791.91;5336759;32;35062;-95
2022/07/12 08:26:24;;;;;;;;;;;;;;;29.88;22.11;100792.22;5336404;32;35607;-96
2022/07/12 08:29:26;;;;;;;;;;;;;;;31.57;20.44;100790.34;5336117;32;33657;-94
2022/07/12 08:32:31;;;;;;;;;;;;;;;30.19;21.33;100795.81;5332983;32;33468;-96
2022/07/12 08:35:43;;;;;;;;;;;;;;;29.02;23.31;100796.44;5357884;32;37154;-96
2022/07/12 08:38:59;;;;;;;;;;;;;;;30.97;20.78;100786.66;5356275;32;36116;-96
2022/07/12 08:42:06;;;;;;;;;;;;;;;31.26;19.88;100785.91;5389092;32;37424;-94
2022/07/12 08:45:21;;;;;;;;;;;;;;;30.46;21.21;100780.06;5393406;32;35619;-95
2022/07/12 08:48:38;;;;;;;;;;;;;;;27.91;24.33;100790.44;5403976;27;35182;-71
2022/07/12 08:51:41;;;;;;;;;;;;;;;27.11;25.63;100787.06;5413686;32;36041;-71
2022/07/12 08:54:43;;;;;;;;;;;;;;;30.57;21.04;100779.66;5397474;32;34990;-70
2022/07/12 08:57:45;;;;;;;;;;;;;;;29.07;22.38;100774.28;5411709;32;34245;-73
2022/07/12 09:00:47;;;;;;;;;;;;;;;29.40;22.54;100767.78;5377723;32;36177;-67
2022/07/12 09:04:08;;;;;;;;;;;;;;;28.83;23.09;100778.66;5401138;32;34779;-66
2022/07/12 09:07:15;;;;;;;;;;;;;;;29.41;22.48;100782.19;5394556;32;44156;-70
2022/07/12 09:10:19;;;;;;;;;;;;;;;29.27;22.18;100772.06;5384869;32;34774;-68
2022/07/12 09:13:24;;;;;;;;;;;;;;;30.61;20.60;100778.28;5406734;32;34754;-71
2022/07/12 09:16:26;;;;;;;;;;;;;;;28.22;23.63;100787.19;5397658;32;36135;-68
2022/07/12 09:19:29;;;;;;;;;;;;;;;27.59;24.80;100780.28;5399591;32;34426;-71
2022/07/12 09:22:31;;;;;;;;;;;;;;;27.88;24.58;100777.25;5410348;32;35647;-70
2022/07/12 09:25:33;;;;;;;;;;;;;;;28.77;23.44;100775.78;5397210;32;36435;-78
2022/07/12 09:28:35;;;;;;;;;;;;;;;28.93;23.10;100770.41;5403449;32;34754;-77
2022/07/12 09:36:06;;;;;;;;;;;;;;;28.75;23.72;100777.81;5396883;32;44627;-70
2022/07/12 09:38:25;;;;;;;;;;;;;;;31.10;20.29;100761.59;5415584;32;34927;-78
2022/07/12 09:41:27;;;;;;;;;;;;;;;28.10;23.72;100772.28;5382491;32;36760;-74
2022/07/12 09:44:29;;;;;;;;;;;;;;;26.96;24.89;100786.75;5398401;32;37029;-75
2022/07/12 09:47:31;;;;;;;;;;;;;;;28.37;22.94;100774.72;5402720;32;36016;-70
2022/07/12 09:50:33;;;;;;;;;;;;;;;28.60;22.41;100774.94;5398600;32;33459;-70
2022/07/12 09:53:53;;;;;;;;;;;;;;;29.24;21.89;100767.84;5388873;32;37057;-75
2022/07/12 09:56:57;;;;;;;;;;;;;;;29.07;22.29;100761.59;5400893;32;33885;-72
2022/07/12 09:59:59;;;;;;;;;;;;;;;28.67;23.09;100754.31;5374690;32;34788;-74
2022/07/12 10:03:01;;;;;;;;;;;;;;;28.41;22.75;100756.34;5385465;32;35378;-78
2022/07/12 10:06:03;;;;;;;;;;;;;;;29.12;21.67;100755.69;5407953;32;35814;-70
2022/07/12 10:09:05;;;;;;;;;;;;;;;29.56;21.50;100756.13;5386956;32;45312;-73
2022/07/12 10:12:08;;;;;;;;;;;;;;;29.05;21.75;100758.22;5406162;32;34541;-70
2022/07/12 10:15:16;;;;;;;;;;;;;;;29.76;21.03;100731.34;5407175;32;36194;-70
2022/07/12 10:18:18;;;;;;;;;;;;;;;30.32;20.28;100746.44;5390275;32;34825;-70
2022/07/12 10:21:22;;;;;;;;;;;;;;;29.79;20.99;100744.50;5421832;32;35144;-77
2022/07/12 10:24:30;;;;;;;;;;;;;;;30.19;20.78;100738.87;5382630;32;34703;-71
2022/07/12 10:27:33;;;;;;;;;;;;;;;29.87;21.25;100741.75;5409497;32;33373;-78
2022/07/12 10:30:45;;;;;;;;;;;;;;;29.95;21.24;100744.44;5392514;32;34956;-77
2022/07/12 10:33:47;;;;;;;;;;;;;;;30.03;21.19;100754.41;5375492;32;34801;-76
2022/07/12 10:37:10;;;;;;;;;;;;;;;29.16;22.30;100739.94;5397511;32;33448;-70
2022/07/12 10:40:20;;;;;;;;;;;;;;;28.04;23.10;100744.91;5385554;32;35311;-79
2022/07/12 10:44:04;;;;;;;;;;;;;;;28.80;22.22;100718.66;5416821;32;35095;-76
2022/07/12 10:47:00;;;;;;;;;;;;;;;28.03;23.45;100718.06;5413862;32;35880;-70
2022/07/12 10:50:02;;;;;;;;;;;;;;;27.65;24.26;100738.31;5403055;32;34638;-69
2022/07/12 10:53:28;;;;;;;;;;;;;;;27.78;23.90;100725.22;5408486;32;36199;-81
2022/07/12 10:56:38;;;;;;;;;;;;;;;26.78;25.66;100731.16;5405901;32;35420;-68
2022/07/12 10:59:40;;;;;;;;;;;;;;;27.30;25.21;100742.84;5378637;32;46722;-75
2022/07/12 11:02:43;;;;;;;;;;;;;;;25.85;27.10;100754.78;5386881;32;34821;-70
2022/07/12 11:05:45;;;;;;;;;;;;;;;25.62;27.99;100767.72;5395257;32;36173;-77
2022/07/12 11:08:51;;;;;;;;;;;;;;;25.00;29.38;100763.78;5413522;32;35639;-73
2022/07/12 11:11:54;;;;;;;;;;;;;;;24.74;30.05;100766.22;5406081;32;34814;-75
2022/07/12 11:14:56;;;;;;;;;;;;;;;24.65;30.38;100767.06;5396768;32;34782;-70
2022/07/12 11:17:58;;;;;;;;;;;;;;;25.42;29.33;100775.03;5385530;32;35529;-69
2022/07/12 11:21:00;;;;;;;;;;;;;;;23.92;31.88;100779.91;5406187;32;36180;-81
2022/07/12 11:24:02;;;;;;;;;;;;;;;23.82;32.50;100781.72;5403978;32;35062;-70
2022/07/12 11:27:05;;;;;;;;;;;;;;;24.63;30.82;100760.97;5391608;32;34376;-70
2022/07/12 11:30:08;;;;;;;;;;;;;;;25.05;30.38;100761.53;5406433;32;44389;-83
2022/07/12 11:33:10;;;;;;;;;;;;;;;26.55;28.12;100757.75;5388570;32;34913;-72
2022/07/12 11:36:13;;;;;;;;;;;;;;;28.00;26.30;100748.09;5397592;32;36532;-72
2022/07/12 11:39:15;;;;;;;;;;;;;;;28.80;25.26;100734.88;5383506;32;34551;-67
2022/07/12 11:42:18;;;;;;;;;;;;;;;28.91;24.80;100729.09;5405504;32;36012;-68
2022/07/12 11:45:22;;;;;;;;;;;;;;;27.19;27.51;100729.63;5404660;32;36959;-74
2022/07/12 11:48:25;;;;;;;;;;;;;;;27.66;26.35;100726.50;5401805;32;34672;-77
2022/07/12 11:51:27;;;;;;;;;;;;;;;28.27;25.77;100726.22;5416281;32;37457;-82
2022/07/12 11:54:30;;;;;;;;;;;;;;;29.40;24.21;100712.81;5386851;32;35793;-72
2022/07/12 11:57:33;;;;;;;;;;;;;;;29.07;22.14;100710.19;5413105;32;35964;-86
2022/07/12 12:00:35;;;;;;;;;;;;;;;29.90;20.74;100708.91;5347291;32;35129;-73
2022/07/12 12:03:44;;;;;;;;;;;;;;;30.85;19.30;100695.00;5397601;32;44599;-71
2022/07/12 12:06:47;;;;;;;;;;;;;;;31.14;18.90;100692.34;5409974;32;35987;-68
2022/07/12 12:09:58;;;;;;;;;;;;;;;29.27;20.80;100696.28;5384550;32;36779;-72
2022/07/12 12:13:01;;;;;;;;;;;;;;;28.28;21.79;100708.13;5416516;32;34625;-75
2022/07/12 12:16:03;;;;;;;;;;;;;;;27.25;23.20;100699.31;5383396;32;34363;-69
2022/07/12 12:19:10;;;;;;;;;;;;;;;26.49;23.97;100696.38;5409573;32;44763;-65
2022/07/12 12:22:31;;;;;;;;;;;;;;;27.03;23.53;100694.41;5402807;32;35893;-71
2022/07/12 12:25:33;;;;;;;;;;;;;;;27.73;22.94;100687.91;5373136;32;944208;-73
2022/07/12 12:28:48;;;;;;;;;;;;;;;27.32;23.56;100670.69;5415170;32;44628;-67
2022/07/12 12:31:58;;;;;;;;;;;;;;;26.94;24.11;100677.34;5411416;32;35147;-72
2022/07/12 12:35:11;;;;;;;;;;;;;;;27.06;23.32;100673.41;5421624;32;34673;-83
2022/07/12 12:38:14;;;;;;;;;;;;;;;26.71;23.67;100680.53;5423669;32;43540;-70
2022/07/12 12:41:17;;;;;;;;;;;;;;;26.15;24.89;100668.28;5399464;32;34736;-70
2022/07/12 12:44:20;;;;;;;;;;;;;;;26.25;24.65;100670.03;5404754;32;37039;-68
2022/07/12 12:47:31;;;;;;;;;;;;;;;27.45;23.04;100695.38;5391421;32;34675;-78
2022/07/12 12:50:41;;;;;;;;;;;;;;;26.48;24.59;100700.94;5399120;32;35862;-76
2022/07/12 12:53:43;;;;;;;;;;;;;;;26.86;22.85;100686.22;5391924;32;45901;-68
2022/07/12 12:56:45;;;;;;;;;;;;;;;26.98;22.25;100690.38;5398849;32;36241;-80
2022/07/12 12:59:47;;;;;;;;;;;;;;;26.66;22.41;100684.72;5386540;32;34589;-75
2022/07/12 13:02:49;;;;;;;;;;;;;;;27.39;21.55;100673.56;5401534;32;35311;-71
2022/07/12 13:05:52;;;;;;;;;;;;;;;26.78;21.68;100679.91;5409168;32;33054;-84
2022/07/12 13:08:54;;;;;;;;;;;;;;;27.02;21.33;100671.16;5389083;32;35944;-68
2022/07/12 13:11:56;;;;;;;;;;;;;;;26.80;21.01;100668.00;5415195;32;35129;-76
2022/07/12 13:14:58;;;;;;;;;;;;;;;27.68;20.40;100654.25;5399836;32;34766;-68
2022/07/12 13:18:01;;;;;;;;;;;;;;;28.18;20.01;100651.53;5400460;32;36328;-81
2022/07/12 13:21:04;;;;;;;;;;;;;;;27.02;19.69;100653.13;5406957;32;36015;-73
2022/07/12 13:24:05;;;;;;;;;;;;;;;27.44;19.31;100664.00;5401337;32;42597;-68
2022/07/12 13:27:07;;;;;;;;;;;;;;;27.42;18.98;100654.34;5398788;32;34847;-70
2022/07/12 13:30:11;;;;;;;;;;;;;;;27.20;19.64;100642.28;5377420;32;35237;-70
2022/07/12 13:33:13;;;;;;;;;;;;;;;27.76;19.60;100651.66;5414075;32;36385;-71
2022/07/12 13:36:15;;;;;;;;;;;;;;;27.32;20.08;100659.03;5405138;32;36640;-75
2022/07/12 13:42:41;;;;;;;;;;;;;;;27.13;20.12;100654.72;5415033;32;44692;-77
2022/07/12 13:45:44;;;;;;;;;;;;;;;27.41;19.74;100652.66;5398281;32;35965;-72
2022/07/12 13:48:46;;;;;;;;;;;;;;;27.15;20.07;100658.94;5415365;32;36187;-69
2022/07/12 13:51:48;;;;;;;;;;;;;;;28.06;19.44;100667.22;5405457;32;35619;-77
2022/07/12 13:54:50;;;;;;;;;;;;;;;27.97;19.54;100659.28;5397365;32;38254;-82
2022/07/12 13:57:52;;;;;;;;;;;;;;;27.06;20.39;100657.22;5408240;32;36377;-73
2022/07/12 14:00:54;;;;;;;;;;;;;;;27.74;19.71;100640.97;5377798;32;36302;-76
2022/07/12 14:03:56;;;;;;;;;;;;;;;27.79;19.51;100651.31;5408554;32;33410;-75
2022/07/12 14:06:59;;;;;;;;;;;;;;;28.29;18.82;100642.25;5398575;32;34635;-71
2022/07/12 14:10:01;;;;;;;;;;;;;;;27.19;20.05;100654.09;5391202;32;37593;-77
2022/07/12 14:13:03;;;;;;;;;;;;;;;27.87;19.38;100645.06;5398694;32;35045;-71
2022/07/12 14:16:05;;;;;;;;;;;;;;;26.81;20.25;100645.41;5400387;32;45014;-76
2022/07/12 14:19:07;;;;;;;;;;;;;;;27.78;19.63;100644.22;5406641;32;44652;-71
2022/07/12 14:22:09;;;;;;;;;;;;;;;27.44;20.22;100646.94;5380605;32;35405;-71
2022/07/12 14:25:11;;;;;;;;;;;;;;;27.18;20.58;100637.06;5411623;32;35328;-74
2022/07/12 14:28:13;;;;;;;;;;;;;;;27.48;20.36;100624.84;5382243;32;37049;-70
2022/07/12 14:31:15;;;;;;;;;;;;;;;27.01;20.87;100651.44;5417028;32;35492;-75
2022/07/12 14:34:18;;;;;;;;;;;;;;;27.31;20.54;100647.41;5396392;32;35895;-75
2022/07/12 14:37:20;;;;;;;;;;;;;;;26.98;20.85;100640.94;5400159;32;35295;-74
2022/07/12 14:40:22;;;;;;;;;;;;;;;27.00;21.11;100642.50;5399241;32;35987;-76
2022/07/12 14:43:24;;;;;;;;;;;;;;;27.05;21.28;100657.31;5399571;32;34783;-75
2022/07/12 14:46:26;;;;;;;;;;;;;;;27.10;21.50;100637.00;5411695;32;35875;-74
2022/07/12 14:49:29;;;;;;;;;;;;;;;27.31;21.49;100644.72;5397074;32;36946;-71
2022/07/12 14:52:31;;;;;;;;;;;;;;;26.93;21.81;100649.53;5413719;32;35703;-74
2022/07/12 14:55:33;;;;;;;;;;;;;;;26.64;22.15;100643.59;5397347;32;35324;-74
2022/07/12 14:58:35;;;;;;;;;;;;;;;26.44;22.45;100642.94;5370484;32;35450;-77
2022/07/12 15:01:37;;;;;;;;;;;;;;;26.74;22.25;100647.06;5401814;32;45288;-75
2022/07/12 15:04:39;;;;;;;;;;;;;;;26.61;22.23;100649.31;5393464;32;35031;-75
2022/07/12 15:07:41;;;;;;;;;;;;;;;26.90;22.14;100639.03;5413830;32;35252;-75
2022/07/12 15:10:43;;;;;;;;;;;;;;;26.85;22.34;100643.22;5379517;32;34332;-72
2022/07/12 15:13:45;;;;;;;;;;;;;;;27.26;21.53;100645.19;5410526;32;35159;-75
2022/07/12 15:16:48;;;;;;;;;;;;;;;26.84;21.83;100638.84;5402936;32;35269;-71
2022/07/12 15:19:50;;;;;;;;;;;;;;;26.61;21.85;100633.16;5392574;32;35196;-74
2022/07/12 15:22:52;;;;;;;;;;;;;;;26.93;21.62;100648.69;5411726;32;36059;-71
2022/07/12 15:25:54;;;;;;;;;;;;;;;26.85;21.69;100652.16;5383165;32;34733;-74
2022/07/12 15:28:58;;;;;;;;;;;;;;;27.02;21.29;100644.19;5399437;32;33711;-72
2022/07/12 15:32:00;;;;;;;;;;;;;;;26.86;21.19;100636.84;5396452;32;35500;-74
2022/07/12 15:35:02;;;;;;;;;;;;;;;25.93;22.20;100657.94;5410954;32;35088;-74
2022/07/12 15:38:03;;;;;;;;;;;;;;;26.77;21.12;100659.34;5395842;32;36255;-74
2022/07/12 15:41:06;;;;;;;;;;;;;;;26.36;21.67;100661.72;5382095;32;45111;-73
2022/07/12 15:44:08;;;;;;;;;;;;;;;26.10;22.34;100658.94;5411143;32;35411;-72
2022/07/12 15:47:14;;;;;;;;;;;;;;;26.25;22.04;100652.00;5397392;32;35548;-66
2022/07/12 15:50:15;;;;;;;;;;;;;;;26.66;21.75;100639.75;5412892;32;36065;-74
2022/07/12 15:53:30;;;;;;;;;;;;;;;26.92;21.67;100634.38;5394378;32;35745;-65
2022/07/12 15:56:32;;;;;;;;;;;;;;;26.89;22.28;100653.53;5403870;32;36697;-66
2022/07/12 15:59:34;;;;;;;;;;;;;;;26.62;23.05;100630.28;5382220;32;36091;-76